Terminal Aerodrome Forecast
Issued by NWS

Home | Current Version | Previous Version | Text Only | Print | Product List | Glossary On
Versions: 1 2 3 4 5 6 7 8 9 10 11 12 13 14 15 16 17 18
000
FTUS45 KBOU 241120
TAFBJC
TAF
KBJC 241120Z 2412/2512 33007KT P6SM FEW090 SCT130 BKN220
     FM241400 VRB05KT P6SM VCSH FEW090 BKN140
     FM241600 06008KT P6SM SCT090 BKN140
     FM242100 35006KT P6SM SCT090 BKN120 PROB30 2421/2503 VRB20G35KT
      TSRA BKN080CB
     FM250300 25007KT P6SM FEW090 BKN140
     FM250800 VRB05KT P6SM SCT140 BKN200=

USA.gov is the U.S. government's official web portal to all federal, state and local government web resources and services.